This is the latest recevied weather packets stored in our database for station/object KB9OQF-5. If no packets are shown the sender has not sent any weather packets the latest 10 day(s).
| Time | Temp. | Humidity | Pressure | Rain* | Wind** | Luminosity | Snow |
|---|---|---|---|---|---|---|---|
| 1788335467 | 24.44° C | 85% | 987 hPa | 0 mm | - | - | - |
| 1788335435 | 24.44° C | 85% | 987 hPa | 0 mm | - | - | - |
| 1788334435 | 24.44° C | 85% | 987 hPa | 0 mm | - | - | - |
| 1788334385 | 24.44° C | 85% | 987 hPa | 0 mm | - | - | - |
| 1788332663 | 24.44° C | 84% | 987 hPa | 0 mm | - | - | - |
| 1788330887 | 25° C | 83% | 987 hPa | 0 mm | - | - | - |
| 1788330536 | 25° C | 83% | 987 hPa | 0 mm | - | - | - |
| 1788329914 | 25° C | 84% | 987 hPa | 0 mm | - | - | - |
| 1788329835 | 25° C | 84% | 987 hPa | 0 mm | - | - | - |
| 1788329484 | 25° C | 83% | 987 hPa | 0 mm | - | - | - |
| 1788329149 | 25° C | 83% | 987 hPa | 0 mm | - | - | - |
| 1788327385 | 25.56° C | 80% | 987 hPa | 0 mm | - | - | - |
| 1788326684 | 25.56° C | 80% | 987 hPa | 0 mm | - | - | - |
| 1788325635 | 26.11° C | 79% | 987 hPa | 0 mm | - | - | - |
| 1788324934 | 26.11° C | 79% | 987 hPa | 0 mm | - | - | - |
| 1788324585 | 26.11° C | 79% | 987 hPa | 0 mm | - | - | - |
| 1788322835 | 26.67° C | 78% | 987 hPa | 0 mm | - | - | - |
| 1788322134 | 26.67° C | 80% | 987 hPa | 0 mm | - | - | - |
| 1788321435 | 26.11° C | 80% | 986 hPa | 0 mm | - | - | - |
| 1788319335 | 26.11° C | 81% | 986 hPa | 0 mm | - | - | - |
| 1788318985 | 26.67° C | 80% | 987 hPa | 0 mm | - | - | - |
| 1788317585 | 26.67° C | 80% | 987 hPa | 0 mm | - | - | - |
| 1788317235 | 26.67° C | 79% | 986 hPa | 0 mm | - | - | - |
| 1788316884 | 27.22° C | 77% | 986 hPa | 0 mm | - | - | - |
| 1788316184 | 27.22° C | 78% | 986 hPa | 0 mm | - | - | - |
* Rain latest hour (hover to see other rain measurements)
** Current wind speed in m/s (hover to see current wind gust speed)